Terminal Aerodrome Forecast
Issued by NWS Green Bay, WI

Home | Current Version | Previous Version | Text Only | Print | Product List | Glossary On
Versions: 1 2 3 4 5 6 7 8 9 10 11 12 13 14 15 16 17 18 19 20 21 22 23 24 25 26 27 28 29 30
000
FTUS43 KGRB 220500
TAFGRB
TAF
KGRB 220536Z 2206/2306 17012KT 6SM BR SCT012 OVC025
      TEMPO 2206/2209 2SM -SNDZ BR OVC012
     FM220900 16011KT 4SM BR SCT009 OVC018
      TEMPO 2209/2212 2SM -SNDZ BR OVC009
     FM221600 12009KT 6SM BR SCT012 OVC025
     FM221900 10012G20KT P6SM SCT018 OVC035
     FM230200 10012G20KT 2SM -RASN BKN015 OVC022
     FM230400 08014G22KT 1SM -SN OVC014=

USA.gov is the U.S. government's official web portal to all federal, state and local government web resources and services.